sensor_id;sensor_type;location;lat;lon;timestamp;P1;durP1;ratioP1;P2;durP2;ratioP2
57299;SDS011;43148;50.966;18.198;2022-07-23T00:02:07;21.90;;;12.90;;
57299;SDS011;43148;50.966;18.198;2022-07-23T00:04:51;24.20;;;12.80;;
57299;SDS011;43148;50.966;18.198;2022-07-23T00:07:36;25.90;;;13.60;;
57299;SDS011;43148;50.966;18.198;2022-07-23T00:10:20;23.20;;;12.90;;
57299;SDS011;43148;50.966;18.198;2022-07-23T00:13:04;25.00;;;14.60;;
57299;SDS011;43148;50.966;18.198;2022-07-23T00:15:48;22.80;;;12.40;;
57299;SDS011;43148;50.966;18.198;2022-07-23T00:18:33;20.60;;;11.80;;
57299;SDS011;43148;50.966;18.198;2022-07-23T00:21:17;19.50;;;11.40;;
57299;SDS011;43148;50.966;18.198;2022-07-23T00:24:01;23.50;;;11.90;;
57299;SDS011;43148;50.966;18.198;2022-07-23T00:26:45;23.50;;;12.20;;
57299;SDS011;43148;50.966;18.198;2022-07-23T00:29:30;23.30;;;12.50;;
57299;SDS011;43148;50.966;18.198;2022-07-23T00:32:14;20.00;;;12.00;;
57299;SDS011;43148;50.966;18.198;2022-07-23T00:34:58;24.80;;;12.00;;
57299;SDS011;43148;50.966;18.198;2022-07-23T00:37:42;20.70;;;12.00;;
57299;SDS011;43148;50.966;18.198;2022-07-23T00:40:27;21.00;;;11.90;;
57299;SDS011;43148;50.966;18.198;2022-07-23T00:43:11;21.90;;;13.40;;
57299;SDS011;43148;50.966;18.198;2022-07-23T00:45:56;20.70;;;11.80;;
57299;SDS011;43148;50.966;18.198;2022-07-23T00:48:40;23.00;;;13.30;;
57299;SDS011;43148;50.966;18.198;2022-07-23T00:51:24;19.00;;;11.50;;
57299;SDS011;43148;50.966;18.198;2022-07-23T00:54:09;22.40;;;12.60;;
57299;SDS011;43148;50.966;18.198;2022-07-23T00:56:53;20.40;;;11.80;;
57299;SDS011;43148;50.966;18.198;2022-07-23T00:59:40;24.20;;;13.90;;
57299;SDS011;43148;50.966;18.198;2022-07-23T01:02:25;23.20;;;13.50;;
57299;SDS011;43148;50.966;18.198;2022-07-23T01:05:09;22.20;;;13.00;;
57299;SDS011;43148;50.966;18.198;2022-07-23T01:07:53;20.40;;;12.40;;
57299;SDS011;43148;50.966;18.198;2022-07-23T01:10:38;22.40;;;12.10;;
57299;SDS011;43148;50.966;18.198;2022-07-23T01:13:22;18.40;;;11.90;;
57299;SDS011;43148;50.966;18.198;2022-07-23T01:16:06;24.40;;;13.20;;
57299;SDS011;43148;50.966;18.198;2022-07-23T01:18:51;21.70;;;12.70;;
57299;SDS011;43148;50.966;18.198;2022-07-23T01:21:46;22.90;;;14.00;;
57299;SDS011;43148;50.966;18.198;2022-07-23T01:24:30;23.10;;;13.80;;
57299;SDS011;43148;50.966;18.198;2022-07-23T01:27:19;27.80;;;15.70;;
57299;SDS011;43148;50.966;18.198;2022-07-23T01:30:03;25.50;;;14.90;;
57299;SDS011;43148;50.966;18.198;2022-07-23T01:32:48;24.20;;;13.70;;
57299;SDS011;43148;50.966;18.198;2022-07-23T01:35:32;22.50;;;13.20;;
57299;SDS011;43148;50.966;18.198;2022-07-23T01:38:17;22.50;;;13.10;;
57299;SDS011;43148;50.966;18.198;2022-07-23T01:41:01;21.90;;;12.70;;
57299;SDS011;43148;50.966;18.198;2022-07-23T01:43:45;20.20;;;12.10;;
57299;SDS011;43148;50.966;18.198;2022-07-23T01:46:29;22.00;;;12.20;;
57299;SDS011;43148;50.966;18.198;2022-07-23T01:49:13;19.90;;;12.70;;
57299;SDS011;43148;50.966;18.198;2022-07-23T01:51:57;20.50;;;12.50;;
57299;SDS011;43148;50.966;18.198;2022-07-23T01:54:44;21.00;;;12.60;;
57299;SDS011;43148;50.966;18.198;2022-07-23T01:57:31;22.90;;;13.80;;
57299;SDS011;43148;50.966;18.198;2022-07-23T02:00:15;22.90;;;14.50;;
57299;SDS011;43148;50.966;18.198;2022-07-23T02:02:59;21.90;;;14.40;;
57299;SDS011;43148;50.966;18.198;2022-07-23T02:05:44;22.60;;;13.60;;
57299;SDS011;43148;50.966;18.198;2022-07-23T02:08:28;20.50;;;13.20;;
57299;SDS011;43148;50.966;18.198;2022-07-23T02:11:12;21.10;;;13.00;;
57299;SDS011;43148;50.966;18.198;2022-07-23T02:13:56;23.20;;;13.30;;
57299;SDS011;43148;50.966;18.198;2022-07-23T02:16:40;23.60;;;14.40;;
57299;SDS011;43148;50.966;18.198;2022-07-23T02:19:25;21.40;;;14.00;;
57299;SDS011;43148;50.966;18.198;2022-07-23T02:22:09;22.80;;;14.50;;
57299;SDS011;43148;50.966;18.198;2022-07-23T02:24:53;63.40;;;40.10;;
57299;SDS011;43148;50.966;18.198;2022-07-23T02:27:37;82.30;;;54.00;;
57299;SDS011;43148;50.966;18.198;2022-07-23T02:30:21;21.80;;;13.60;;
57299;SDS011;43148;50.966;18.198;2022-07-23T02:33:06;25.20;;;14.50;;
57299;SDS011;43148;50.966;18.198;2022-07-23T02:35:50;22.30;;;13.30;;
57299;SDS011;43148;50.966;18.198;2022-07-23T02:38:34;21.40;;;13.30;;
57299;SDS011;43148;50.966;18.198;2022-07-23T02:41:18;21.90;;;12.80;;
57299;SDS011;43148;50.966;18.198;2022-07-23T02:44:02;20.20;;;12.70;;
57299;SDS011;43148;50.966;18.198;2022-07-23T02:46:47;18.80;;;12.70;;
57299;SDS011;43148;50.966;18.198;2022-07-23T02:49:32;23.20;;;13.30;;
57299;SDS011;43148;50.966;18.198;2022-07-23T02:52:16;22.00;;;13.50;;
57299;SDS011;43148;50.966;18.198;2022-07-23T02:55:00;23.90;;;13.70;;
57299;SDS011;43148;50.966;18.198;2022-07-23T02:57:44;21.50;;;13.20;;
57299;SDS011;43148;50.966;18.198;2022-07-23T03:00:28;22.50;;;14.10;;
57299;SDS011;43148;50.966;18.198;2022-07-23T03:03:12;18.90;;;12.00;;
57299;SDS011;43148;50.966;18.198;2022-07-23T03:05:56;20.90;;;12.00;;
57299;SDS011;43148;50.966;18.198;2022-07-23T03:08:40;21.40;;;12.10;;
57299;SDS011;43148;50.966;18.198;2022-07-23T03:11:24;20.00;;;11.40;;
57299;SDS011;43148;50.966;18.198;2022-07-23T03:14:08;21.90;;;13.70;;
57299;SDS011;43148;50.966;18.198;2022-07-23T03:16:52;21.90;;;13.10;;
57299;SDS011;43148;50.966;18.198;2022-07-23T03:19:38;24.20;;;13.90;;
57299;SDS011;43148;50.966;18.198;2022-07-23T03:22:22;23.80;;;14.50;;
57299;SDS011;43148;50.966;18.198;2022-07-23T03:25:07;22.40;;;13.60;;
57299;SDS011;43148;50.966;18.198;2022-07-23T03:27:51;21.50;;;13.20;;
57299;SDS011;43148;50.966;18.198;2022-07-23T03:30:35;23.40;;;14.10;;
57299;SDS011;43148;50.966;18.198;2022-07-23T03:33:20;22.30;;;13.10;;
57299;SDS011;43148;50.966;18.198;2022-07-23T03:36:04;20.90;;;13.40;;
57299;SDS011;43148;50.966;18.198;2022-07-23T03:38:49;20.80;;;12.80;;
57299;SDS011;43148;50.966;18.198;2022-07-23T03:41:34;19.50;;;12.60;;
57299;SDS011;43148;50.966;18.198;2022-07-23T03:44:19;21.30;;;13.00;;
57299;SDS011;43148;50.966;18.198;2022-07-23T03:47:03;21.30;;;13.30;;
57299;SDS011;43148;50.966;18.198;2022-07-23T03:49:48;21.80;;;13.50;;
57299;SDS011;43148;50.966;18.198;2022-07-23T03:52:32;22.00;;;13.40;;
57299;SDS011;43148;50.966;18.198;2022-07-23T03:55:17;22.10;;;14.60;;
57299;SDS011;43148;50.966;18.198;2022-07-23T03:58:01;21.00;;;13.30;;
57299;SDS011;43148;50.966;18.198;2022-07-23T04:00:45;21.70;;;13.30;;
57299;SDS011;43148;50.966;18.198;2022-07-23T04:03:30;19.50;;;13.10;;
57299;SDS011;43148;50.966;18.198;2022-07-23T04:06:14;19.60;;;11.60;;
57299;SDS011;43148;50.966;18.198;2022-07-23T04:08:58;18.00;;;11.60;;
57299;SDS011;43148;50.966;18.198;2022-07-23T04:11:43;19.10;;;11.90;;
57299;SDS011;43148;50.966;18.198;2022-07-23T04:14:27;20.80;;;11.50;;
57299;SDS011;43148;50.966;18.198;2022-07-23T04:17:12;19.20;;;12.10;;
57299;SDS011;43148;50.966;18.198;2022-07-23T04:19:56;22.60;;;13.80;;
57299;SDS011;43148;50.966;18.198;2022-07-23T04:22:40;23.80;;;14.30;;
57299;SDS011;43148;50.966;18.198;2022-07-23T04:25:25;19.30;;;12.60;;
57299;SDS011;43148;50.966;18.198;2022-07-23T04:28:09;17.90;;;12.50;;
57299;SDS011;43148;50.966;18.198;2022-07-23T04:30:55;18.00;;;12.10;;
57299;SDS011;43148;50.966;18.198;2022-07-23T04:33:40;19.30;;;11.80;;
57299;SDS011;43148;50.966;18.198;2022-07-23T04:36:24;18.80;;;12.00;;
57299;SDS011;43148;50.966;18.198;2022-07-23T04:39:08;18.80;;;11.70;;
57299;SDS011;43148;50.966;18.198;2022-07-23T04:41:52;17.40;;;11.50;;
57299;SDS011;43148;50.966;18.198;2022-07-23T04:44:36;17.60;;;11.00;;
57299;SDS011;43148;50.966;18.198;2022-07-23T04:47:21;17.20;;;10.90;;
57299;SDS011;43148;50.966;18.198;2022-07-23T04:50:05;16.40;;;10.80;;
57299;SDS011;43148;50.966;18.198;2022-07-23T04:52:49;16.20;;;10.20;;
57299;SDS011;43148;50.966;18.198;2022-07-23T04:55:33;16.20;;;10.10;;
57299;SDS011;43148;50.966;18.198;2022-07-23T04:58:17;16.10;;;9.90;;
57299;SDS011;43148;50.966;18.198;2022-07-23T05:01:01;15.80;;;10.00;;
57299;SDS011;43148;50.966;18.198;2022-07-23T05:03:45;17.30;;;11.00;;
57299;SDS011;43148;50.966;18.198;2022-07-23T05:06:31;16.80;;;10.60;;
57299;SDS011;43148;50.966;18.198;2022-07-23T05:09:15;15.30;;;10.20;;
57299;SDS011;43148;50.966;18.198;2022-07-23T05:12:00;17.10;;;11.80;;
57299;SDS011;43148;50.966;18.198;2022-07-23T05:14:44;19.20;;;11.40;;
57299;SDS011;43148;50.966;18.198;2022-07-23T05:17:29;16.50;;;10.20;;
57299;SDS011;43148;50.966;18.198;2022-07-23T05:20:13;14.20;;;9.40;;
57299;SDS011;43148;50.966;18.198;2022-07-23T05:22:58;19.60;;;9.70;;
57299;SDS011;43148;50.966;18.198;2022-07-23T05:25:42;17.30;;;9.50;;
57299;SDS011;43148;50.966;18.198;2022-07-23T05:28:27;16.40;;;9.40;;
57299;SDS011;43148;50.966;18.198;2022-07-23T05:31:11;16.70;;;9.70;;
57299;SDS011;43148;50.966;18.198;2022-07-23T05:33:55;16.80;;;9.40;;
57299;SDS011;43148;50.966;18.198;2022-07-23T05:36:39;14.90;;;9.10;;
57299;SDS011;43148;50.966;18.198;2022-07-23T05:39:23;15.50;;;8.90;;
57299;SDS011;43148;50.966;18.198;2022-07-23T05:42:08;15.50;;;8.70;;
57299;SDS011;43148;50.966;18.198;2022-07-23T05:44:52;16.00;;;8.90;;
57299;SDS011;43148;50.966;18.198;2022-07-23T05:47:43;14.30;;;8.50;;
57299;SDS011;43148;50.966;18.198;2022-07-23T05:50:28;15.60;;;8.70;;
57299;SDS011;43148;50.966;18.198;2022-07-23T05:53:12;14.60;;;8.40;;
57299;SDS011;43148;50.966;18.198;2022-07-23T05:55:57;15.40;;;8.60;;
57299;SDS011;43148;50.966;18.198;2022-07-23T05:58:41;17.00;;;8.70;;
57299;SDS011;43148;50.966;18.198;2022-07-23T06:01:25;15.00;;;8.50;;
57299;SDS011;43148;50.966;18.198;2022-07-23T06:04:10;15.30;;;8.70;;
57299;SDS011;43148;50.966;18.198;2022-07-23T06:06:55;16.10;;;8.40;;
57299;SDS011;43148;50.966;18.198;2022-07-23T06:09:39;15.40;;;7.70;;
57299;SDS011;43148;50.966;18.198;2022-07-23T06:12:23;15.30;;;7.90;;
57299;SDS011;43148;50.966;18.198;2022-07-23T06:15:08;14.40;;;7.40;;
57299;SDS011;43148;50.966;18.198;2022-07-23T06:17:53;16.20;;;8.20;;
57299;SDS011;43148;50.966;18.198;2022-07-23T06:20:37;15.40;;;7.90;;
57299;SDS011;43148;50.966;18.198;2022-07-23T06:23:21;14.80;;;7.70;;
57299;SDS011;43148;50.966;18.198;2022-07-23T06:26:05;16.70;;;7.70;;
57299;SDS011;43148;50.966;18.198;2022-07-23T06:28:49;12.90;;;7.30;;
57299;SDS011;43148;50.966;18.198;2022-07-23T06:31:33;13.40;;;7.30;;
57299;SDS011;43148;50.966;18.198;2022-07-23T06:34:18;13.90;;;7.40;;
57299;SDS011;43148;50.966;18.198;2022-07-23T06:37:02;15.60;;;7.50;;
57299;SDS011;43148;50.966;18.198;2022-07-23T06:39:47;14.10;;;7.00;;
57299;SDS011;43148;50.966;18.198;2022-07-23T06:42:32;12.00;;;7.00;;
57299;SDS011;43148;50.966;18.198;2022-07-23T06:45:16;14.50;;;6.70;;
57299;SDS011;43148;50.966;18.198;2022-07-23T06:48:00;13.50;;;6.90;;
57299;SDS011;43148;50.966;18.198;2022-07-23T06:50:46;12.40;;;7.00;;
57299;SDS011;43148;50.966;18.198;2022-07-23T06:53:30;13.20;;;6.60;;
57299;SDS011;43148;50.966;18.198;2022-07-23T06:56:14;11.40;;;6.70;;
57299;SDS011;43148;50.966;18.198;2022-07-23T06:58:58;12.70;;;6.30;;
57299;SDS011;43148;50.966;18.198;2022-07-23T07:01:43;14.00;;;6.50;;
57299;SDS011;43148;50.966;18.198;2022-07-23T07:04:27;13.10;;;6.30;;
57299;SDS011;43148;50.966;18.198;2022-07-23T07:07:11;14.70;;;6.50;;
57299;SDS011;43148;50.966;18.198;2022-07-23T07:09:56;13.40;;;6.80;;
57299;SDS011;43148;50.966;18.198;2022-07-23T07:12:40;14.10;;;6.50;;
57299;SDS011;43148;50.966;18.198;2022-07-23T07:15:24;12.60;;;6.20;;
57299;SDS011;43148;50.966;18.198;2022-07-23T07:18:08;12.00;;;5.70;;
57299;SDS011;43148;50.966;18.198;2022-07-23T07:20:52;11.70;;;5.80;;
57299;SDS011;43148;50.966;18.198;2022-07-23T07:23:37;11.80;;;5.60;;
57299;SDS011;43148;50.966;18.198;2022-07-23T07:26:21;11.00;;;5.60;;
57299;SDS011;43148;50.966;18.198;2022-07-23T07:29:05;10.30;;;5.20;;
57299;SDS011;43148;50.966;18.198;2022-07-23T07:31:50;9.80;;;5.00;;
57299;SDS011;43148;50.966;18.198;2022-07-23T07:34:34;11.60;;;5.20;;
57299;SDS011;43148;50.966;18.198;2022-07-23T07:37:19;12.90;;;5.50;;
57299;SDS011;43148;50.966;18.198;2022-07-23T07:40:03;12.30;;;5.50;;
57299;SDS011;43148;50.966;18.198;2022-07-23T07:42:50;11.20;;;5.50;;
57299;SDS011;43148;50.966;18.198;2022-07-23T07:45:34;11.60;;;5.20;;
57299;SDS011;43148;50.966;18.198;2022-07-23T07:48:18;12.20;;;5.30;;
57299;SDS011;43148;50.966;18.198;2022-07-23T07:51:03;10.00;;;5.00;;
57299;SDS011;43148;50.966;18.198;2022-07-23T07:53:47;11.60;;;5.10;;
57299;SDS011;43148;50.966;18.198;2022-07-23T07:56:31;11.40;;;5.20;;
57299;SDS011;43148;50.966;18.198;2022-07-23T07:59:15;9.60;;;5.00;;
57299;SDS011;43148;50.966;18.198;2022-07-23T08:01:59;10.70;;;5.40;;
57299;SDS011;43148;50.966;18.198;2022-07-23T08:04:44;9.80;;;5.50;;
57299;SDS011;43148;50.966;18.198;2022-07-23T08:07:28;11.30;;;5.40;;
57299;SDS011;43148;50.966;18.198;2022-07-23T08:10:13;11.90;;;5.70;;
57299;SDS011;43148;50.966;18.198;2022-07-23T08:12:57;9.80;;;4.80;;
57299;SDS011;43148;50.966;18.198;2022-07-23T08:15:42;9.80;;;4.70;;
57299;SDS011;43148;50.966;18.198;2022-07-23T08:18:26;9.50;;;4.20;;
57299;SDS011;43148;50.966;18.198;2022-07-23T08:21:10;9.30;;;4.60;;
57299;SDS011;43148;50.966;18.198;2022-07-23T08:23:55;9.00;;;4.40;;
57299;SDS011;43148;50.966;18.198;2022-07-23T08:26:39;8.70;;;4.10;;
57299;SDS011;43148;50.966;18.198;2022-07-23T08:29:23;9.00;;;4.60;;
57299;SDS011;43148;50.966;18.198;2022-07-23T08:32:07;10.70;;;4.90;;
57299;SDS011;43148;50.966;18.198;2022-07-23T08:34:51;12.30;;;4.50;;
57299;SDS011;43148;50.966;18.198;2022-07-23T08:37:35;8.60;;;4.10;;
57299;SDS011;43148;50.966;18.198;2022-07-23T08:40:20;11.70;;;5.00;;
57299;SDS011;43148;50.966;18.198;2022-07-23T08:43:06;10.30;;;4.50;;
57299;SDS011;43148;50.966;18.198;2022-07-23T08:45:51;8.30;;;3.70;;
57299;SDS011;43148;50.966;18.198;2022-07-23T08:48:35;10.30;;;4.60;;
57299;SDS011;43148;50.966;18.198;2022-07-23T08:51:23;9.30;;;3.80;;
57299;SDS011;43148;50.966;18.198;2022-07-23T08:54:09;9.60;;;4.10;;
57299;SDS011;43148;50.966;18.198;2022-07-23T08:56:53;9.00;;;3.70;;
57299;SDS011;43148;50.966;18.198;2022-07-23T08:59:37;9.40;;;4.00;;
57299;SDS011;43148;50.966;18.198;2022-07-23T09:02:21;10.20;;;4.20;;
57299;SDS011;43148;50.966;18.198;2022-07-23T09:05:06;8.20;;;3.80;;
57299;SDS011;43148;50.966;18.198;2022-07-23T09:10:58;9.20;;;4.10;;
57299;SDS011;43148;50.966;18.198;2022-07-23T09:13:49;10.10;;;4.40;;
57299;SDS011;43148;50.966;18.198;2022-07-23T09:16:36;9.80;;;4.60;;
57299;SDS011;43148;50.966;18.198;2022-07-23T09:19:20;10.50;;;4.80;;
57299;SDS011;43148;50.966;18.198;2022-07-23T09:27:58;10.10;;;4.50;;
57299;SDS011;43148;50.966;18.198;2022-07-23T09:30:43;10.00;;;4.50;;
57299;SDS011;43148;50.966;18.198;2022-07-23T09:33:33;10.00;;;4.50;;
57299;SDS011;43148;50.966;18.198;2022-07-23T09:36:26;10.20;;;5.00;;
57299;SDS011;43148;50.966;18.198;2022-07-23T09:39:11;10.60;;;4.90;;
57299;SDS011;43148;50.966;18.198;2022-07-23T09:41:56;10.30;;;4.80;;
57299;SDS011;43148;50.966;18.198;2022-07-23T09:44:42;9.90;;;5.50;;
57299;SDS011;43148;50.966;18.198;2022-07-23T09:47:28;11.50;;;5.40;;
57299;SDS011;43148;50.966;18.198;2022-07-23T09:50:12;11.60;;;4.80;;
57299;SDS011;43148;50.966;18.198;2022-07-23T09:52:57;9.80;;;4.90;;
57299;SDS011;43148;50.966;18.198;2022-07-23T09:55:42;10.80;;;4.70;;
57299;SDS011;43148;50.966;18.198;2022-07-23T09:58:26;11.20;;;5.20;;
57299;SDS011;43148;50.966;18.198;2022-07-23T10:01:13;11.40;;;4.70;;
57299;SDS011;43148;50.966;18.198;2022-07-23T10:03:58;10.00;;;4.40;;
57299;SDS011;43148;50.966;18.198;2022-07-23T10:06:42;9.30;;;4.20;;
57299;SDS011;43148;50.966;18.198;2022-07-23T10:09:31;9.20;;;4.40;;
57299;SDS011;43148;50.966;18.198;2022-07-23T10:12:16;9.90;;;4.70;;
57299;SDS011;43148;50.966;18.198;2022-07-23T10:15:19;10.20;;;4.50;;
57299;SDS011;43148;50.966;18.198;2022-07-23T10:18:04;10.70;;;4.60;;
57299;SDS011;43148;50.966;18.198;2022-07-23T10:20:48;11.10;;;4.30;;
57299;SDS011;43148;50.966;18.198;2022-07-23T10:23:45;10.10;;;4.10;;
57299;SDS011;43148;50.966;18.198;2022-07-23T10:30:02;10.00;;;4.00;;
57299;SDS011;43148;50.966;18.198;2022-07-23T10:35:37;9.50;;;4.10;;
57299;SDS011;43148;50.966;18.198;2022-07-23T10:38:25;9.30;;;3.70;;
57299;SDS011;43148;50.966;18.198;2022-07-23T10:41:11;9.70;;;3.70;;
57299;SDS011;43148;50.966;18.198;2022-07-23T10:44:05;9.80;;;3.80;;
57299;SDS011;43148;50.966;18.198;2022-07-23T10:46:53;10.50;;;4.20;;
57299;SDS011;43148;50.966;18.198;2022-07-23T10:53:17;10.30;;;4.50;;
57299;SDS011;43148;50.966;18.198;2022-07-23T10:56:02;8.90;;;3.60;;
57299;SDS011;43148;50.966;18.198;2022-07-23T10:58:47;10.00;;;3.80;;
57299;SDS011;43148;50.966;18.198;2022-07-23T11:01:38;11.20;;;3.80;;
57299;SDS011;43148;50.966;18.198;2022-07-23T11:10:54;12.40;;;4.70;;
57299;SDS011;43148;50.966;18.198;2022-07-23T11:13:44;11.40;;;4.30;;
57299;SDS011;43148;50.966;18.198;2022-07-23T11:16:31;12.10;;;4.40;;
57299;SDS011;43148;50.966;18.198;2022-07-23T11:19:30;12.60;;;5.10;;
57299;SDS011;43148;50.966;18.198;2022-07-23T11:22:21;11.70;;;4.80;;
57299;SDS011;43148;50.966;18.198;2022-07-23T11:28:15;12.30;;;4.90;;
57299;SDS011;43148;50.966;18.198;2022-07-23T11:31:00;10.50;;;4.90;;
57299;SDS011;43148;50.966;18.198;2022-07-23T11:37:04;10.30;;;4.80;;
57299;SDS011;43148;50.966;18.198;2022-07-23T11:39:49;11.30;;;5.10;;
57299;SDS011;43148;50.966;18.198;2022-07-23T11:42:37;10.80;;;4.70;;
57299;SDS011;43148;50.966;18.198;2022-07-23T11:45:22;10.30;;;4.90;;
57299;SDS011;43148;50.966;18.198;2022-07-23T11:48:16;11.10;;;5.10;;
57299;SDS011;43148;50.966;18.198;2022-07-23T11:51:01;12.70;;;5.50;;
57299;SDS011;43148;50.966;18.198;2022-07-23T11:53:46;10.90;;;5.20;;
57299;SDS011;43148;50.966;18.198;2022-07-23T11:56:30;11.80;;;5.40;;
57299;SDS011;43148;50.966;18.198;2022-07-23T11:59:14;10.30;;;5.30;;
57299;SDS011;43148;50.966;18.198;2022-07-23T12:02:00;10.00;;;4.80;;
57299;SDS011;43148;50.966;18.198;2022-07-23T12:04:46;11.50;;;5.10;;
57299;SDS011;43148;50.966;18.198;2022-07-23T12:07:36;12.30;;;5.00;;
57299;SDS011;43148;50.966;18.198;2022-07-23T12:10:22;11.70;;;5.10;;
57299;SDS011;43148;50.966;18.198;2022-07-23T12:13:14;12.30;;;6.00;;
57299;SDS011;43148;50.966;18.198;2022-07-23T12:15:58;14.80;;;5.30;;
57299;SDS011;43148;50.966;18.198;2022-07-23T12:18:42;20.50;;;5.70;;
57299;SDS011;43148;50.966;18.198;2022-07-23T12:21:27;16.00;;;6.70;;
57299;SDS011;43148;50.966;18.198;2022-07-23T12:24:12;13.30;;;6.50;;
57299;SDS011;43148;50.966;18.198;2022-07-23T12:27:12;13.10;;;6.50;;
57299;SDS011;43148;50.966;18.198;2022-07-23T12:29:58;12.50;;;6.20;;
57299;SDS011;43148;50.966;18.198;2022-07-23T12:32:43;13.70;;;7.20;;
57299;SDS011;43148;50.966;18.198;2022-07-23T12:35:33;13.00;;;7.30;;
57299;SDS011;43148;50.966;18.198;2022-07-23T12:38:18;14.70;;;8.30;;
57299;SDS011;43148;50.966;18.198;2022-07-23T12:41:04;13.60;;;7.50;;
57299;SDS011;43148;50.966;18.198;2022-07-23T12:43:49;14.60;;;8.30;;
57299;SDS011;43148;50.966;18.198;2022-07-23T12:46:33;14.40;;;7.80;;
57299;SDS011;43148;50.966;18.198;2022-07-23T12:49:27;12.90;;;7.10;;
57299;SDS011;43148;50.966;18.198;2022-07-23T12:52:15;14.30;;;8.30;;
57299;SDS011;43148;50.966;18.198;2022-07-23T12:55:00;16.00;;;8.30;;
57299;SDS011;43148;50.966;18.198;2022-07-23T12:57:47;15.70;;;9.60;;
57299;SDS011;43148;50.966;18.198;2022-07-23T13:00:31;16.20;;;9.60;;
57299;SDS011;43148;50.966;18.198;2022-07-23T13:03:29;16.40;;;8.80;;
57299;SDS011;43148;50.966;18.198;2022-07-23T13:06:15;19.20;;;10.90;;
57299;SDS011;43148;50.966;18.198;2022-07-23T13:08:59;17.70;;;10.10;;
57299;SDS011;43148;50.966;18.198;2022-07-23T13:11:44;14.90;;;7.10;;
57299;SDS011;43148;50.966;18.198;2022-07-23T13:14:29;14.90;;;7.40;;
57299;SDS011;43148;50.966;18.198;2022-07-23T13:17:13;16.50;;;8.80;;
57299;SDS011;43148;50.966;18.198;2022-07-23T13:19:58;16.50;;;8.00;;
57299;SDS011;43148;50.966;18.198;2022-07-23T13:22:43;16.20;;;8.20;;
57299;SDS011;43148;50.966;18.198;2022-07-23T13:25:28;14.70;;;9.00;;
57299;SDS011;43148;50.966;18.198;2022-07-23T13:28:13;12.20;;;5.70;;
57299;SDS011;43148;50.966;18.198;2022-07-23T13:30:57;13.10;;;6.80;;
57299;SDS011;43148;50.966;18.198;2022-07-23T13:33:42;13.90;;;8.10;;
57299;SDS011;43148;50.966;18.198;2022-07-23T13:36:27;12.00;;;5.40;;
57299;SDS011;43148;50.966;18.198;2022-07-23T13:39:11;14.20;;;6.60;;
57299;SDS011;43148;50.966;18.198;2022-07-23T13:41:56;15.00;;;8.00;;
57299;SDS011;43148;50.966;18.198;2022-07-23T13:44:40;12.10;;;5.20;;
57299;SDS011;43148;50.966;18.198;2022-07-23T13:47:25;12.70;;;6.30;;
57299;SDS011;43148;50.966;18.198;2022-07-23T13:50:09;10.80;;;4.50;;
57299;SDS011;43148;50.966;18.198;2022-07-23T13:52:54;12.80;;;5.90;;
57299;SDS011;43148;50.966;18.198;2022-07-23T13:55:40;12.70;;;5.80;;
57299;SDS011;43148;50.966;18.198;2022-07-23T13:58:24;13.00;;;6.20;;
57299;SDS011;43148;50.966;18.198;2022-07-23T14:01:08;13.00;;;6.70;;
57299;SDS011;43148;50.966;18.198;2022-07-23T14:03:52;16.10;;;9.70;;
57299;SDS011;43148;50.966;18.198;2022-07-23T14:06:36;12.90;;;7.90;;
57299;SDS011;43148;50.966;18.198;2022-07-23T14:09:21;15.10;;;9.00;;
57299;SDS011;43148;50.966;18.198;2022-07-23T14:12:05;13.40;;;7.80;;
57299;SDS011;43148;50.966;18.198;2022-07-23T14:14:49;16.30;;;8.50;;
57299;SDS011;43148;50.966;18.198;2022-07-23T14:17:35;14.70;;;8.90;;
57299;SDS011;43148;50.966;18.198;2022-07-23T14:20:20;16.20;;;9.40;;
57299;SDS011;43148;50.966;18.198;2022-07-23T14:23:04;18.40;;;10.00;;
57299;SDS011;43148;50.966;18.198;2022-07-23T14:25:48;14.60;;;8.50;;
57299;SDS011;43148;50.966;18.198;2022-07-23T14:28:33;14.70;;;8.10;;
57299;SDS011;43148;50.966;18.198;2022-07-23T14:31:17;15.40;;;8.00;;
57299;SDS011;43148;50.966;18.198;2022-07-23T14:34:01;15.10;;;8.60;;
57299;SDS011;43148;50.966;18.198;2022-07-23T14:36:45;13.20;;;7.20;;
57299;SDS011;43148;50.966;18.198;2022-07-23T14:39:30;13.00;;;7.20;;
57299;SDS011;43148;50.966;18.198;2022-07-23T14:42:15;12.80;;;7.50;;
57299;SDS011;43148;50.966;18.198;2022-07-23T14:44:59;12.90;;;7.50;;
57299;SDS011;43148;50.966;18.198;2022-07-23T14:47:43;12.80;;;7.30;;
57299;SDS011;43148;50.966;18.198;2022-07-23T14:50:28;13.40;;;7.30;;
57299;SDS011;43148;50.966;18.198;2022-07-23T14:53:12;17.50;;;8.70;;
57299;SDS011;43148;50.966;18.198;2022-07-23T14:55:59;11.50;;;6.60;;
57299;SDS011;43148;50.966;18.198;2022-07-23T14:58:44;12.90;;;6.80;;
57299;SDS011;43148;50.966;18.198;2022-07-23T15:01:28;12.70;;;7.30;;
57299;SDS011;43148;50.966;18.198;2022-07-23T15:04:12;13.30;;;7.10;;
57299;SDS011;43148;50.966;18.198;2022-07-23T15:06:56;13.40;;;7.40;;
57299;SDS011;43148;50.966;18.198;2022-07-23T15:09:41;13.30;;;7.70;;
57299;SDS011;43148;50.966;18.198;2022-07-23T15:12:25;12.70;;;7.40;;
57299;SDS011;43148;50.966;18.198;2022-07-23T15:15:09;13.20;;;7.40;;
57299;SDS011;43148;50.966;18.198;2022-07-23T15:17:55;12.50;;;6.60;;
57299;SDS011;43148;50.966;18.198;2022-07-23T15:20:39;13.40;;;7.60;;
57299;SDS011;43148;50.966;18.198;2022-07-23T15:23:23;13.40;;;7.30;;
57299;SDS011;43148;50.966;18.198;2022-07-23T15:26:07;13.80;;;7.30;;
57299;SDS011;43148;50.966;18.198;2022-07-23T15:28:53;13.30;;;7.20;;
57299;SDS011;43148;50.966;18.198;2022-07-23T15:31:38;13.50;;;7.50;;
57299;SDS011;43148;50.966;18.198;2022-07-23T15:34:22;12.40;;;7.40;;
57299;SDS011;43148;50.966;18.198;2022-07-23T15:37:06;13.40;;;7.40;;
57299;SDS011;43148;50.966;18.198;2022-07-23T15:39:50;17.70;;;11.70;;
57299;SDS011;43148;50.966;18.198;2022-07-23T15:42:35;14.30;;;8.90;;
57299;SDS011;43148;50.966;18.198;2022-07-23T15:45:19;13.30;;;7.40;;
57299;SDS011;43148;50.966;18.198;2022-07-23T15:48:04;11.60;;;7.20;;
57299;SDS011;43148;50.966;18.198;2022-07-23T15:50:49;13.60;;;7.50;;
57299;SDS011;43148;50.966;18.198;2022-07-23T15:53:33;12.40;;;7.20;;
57299;SDS011;43148;50.966;18.198;2022-07-23T15:56:18;14.00;;;8.00;;
57299;SDS011;43148;50.966;18.198;2022-07-23T15:59:03;14.70;;;8.60;;
57299;SDS011;43148;50.966;18.198;2022-07-23T16:01:47;14.50;;;8.20;;
57299;SDS011;43148;50.966;18.198;2022-07-23T16:04:32;15.20;;;8.90;;
57299;SDS011;43148;50.966;18.198;2022-07-23T16:07:17;14.00;;;8.70;;
57299;SDS011;43148;50.966;18.198;2022-07-23T16:10:05;16.80;;;10.60;;
57299;SDS011;43148;50.966;18.198;2022-07-23T16:12:50;17.50;;;11.10;;
57299;SDS011;43148;50.966;18.198;2022-07-23T16:15:34;16.40;;;9.70;;
57299;SDS011;43148;50.966;18.198;2022-07-23T16:18:19;17.90;;;10.50;;
57299;SDS011;43148;50.966;18.198;2022-07-23T16:21:06;16.30;;;10.40;;
57299;SDS011;43148;50.966;18.198;2022-07-23T16:23:50;18.30;;;10.60;;
57299;SDS011;43148;50.966;18.198;2022-07-23T16:26:35;17.10;;;10.30;;
57299;SDS011;43148;50.966;18.198;2022-07-23T16:29:20;15.80;;;9.70;;
57299;SDS011;43148;50.966;18.198;2022-07-23T16:32:04;15.70;;;9.70;;
57299;SDS011;43148;50.966;18.198;2022-07-23T16:34:48;16.40;;;10.30;;